sensor_id;sensor_type;location;lat;lon;timestamp;P1;durP1;ratioP1;P2;durP2;ratioP2
65879;SDS011;52661;51.364;6.054;2022-08-18T00:00:05;43.17;;;22.45;;
65879;SDS011;52661;51.364;6.054;2022-08-18T00:02:35;45.72;;;23.42;;
65879;SDS011;52661;51.364;6.054;2022-08-18T00:05:03;44.33;;;22.88;;
65879;SDS011;52661;51.364;6.054;2022-08-18T00:07:30;46.55;;;22.55;;
65879;SDS011;52661;51.364;6.054;2022-08-18T00:09:56;45.65;;;23.60;;
65879;SDS011;52661;51.364;6.054;2022-08-18T00:14:57;50.85;;;23.92;;
65879;SDS011;52661;51.364;6.054;2022-08-18T00:17:28;47.90;;;24.15;;
65879;SDS011;52661;51.364;6.054;2022-08-18T00:19:54;46.28;;;21.30;;
65879;SDS011;52661;51.364;6.054;2022-08-18T00:22:19;44.83;;;22.25;;
65879;SDS011;52661;51.364;6.054;2022-08-18T00:24:47;43.78;;;22.23;;
65879;SDS011;52661;51.364;6.054;2022-08-18T00:27:15;44.22;;;22.25;;
65879;SDS011;52661;51.364;6.054;2022-08-18T00:29:45;47.80;;;22.00;;
65879;SDS011;52661;51.364;6.054;2022-08-18T00:32:14;46.45;;;23.33;;
65879;SDS011;52661;51.364;6.054;2022-08-18T00:34:41;46.80;;;22.35;;
65879;SDS011;52661;51.364;6.054;2022-08-18T00:37:07;52.80;;;23.58;;
65879;SDS011;52661;51.364;6.054;2022-08-18T00:39:32;48.20;;;22.77;;
65879;SDS011;52661;51.364;6.054;2022-08-18T00:41:58;50.65;;;23.45;;
65879;SDS011;52661;51.364;6.054;2022-08-18T00:44:24;55.00;;;24.63;;
65879;SDS011;52661;51.364;6.054;2022-08-18T00:46:50;52.47;;;23.08;;
65879;SDS011;52661;51.364;6.054;2022-08-18T00:49:15;48.40;;;23.67;;
65879;SDS011;52661;51.364;6.054;2022-08-18T00:51:45;55.42;;;24.27;;
65879;SDS011;52661;51.364;6.054;2022-08-18T00:56:42;53.75;;;23.25;;
65879;SDS011;52661;51.364;6.054;2022-08-18T00:59:16;52.33;;;23.20;;
65879;SDS011;52661;51.364;6.054;2022-08-18T01:02:04;50.95;;;23.70;;
65879;SDS011;52661;51.364;6.054;2022-08-18T01:07:13;50.08;;;22.90;;
65879;SDS011;52661;51.364;6.054;2022-08-18T01:09:45;49.65;;;22.90;;
65879;SDS011;52661;51.364;6.054;2022-08-18T01:12:15;47.50;;;22.77;;
65879;SDS011;52661;51.364;6.054;2022-08-18T01:14:41;49.17;;;23.77;;
65879;SDS011;52661;51.364;6.054;2022-08-18T01:17:06;48.40;;;23.43;;
65879;SDS011;52661;51.364;6.054;2022-08-18T01:19:50;45.95;;;21.50;;
65879;SDS011;52661;51.364;6.054;2022-08-18T01:22:36;46.05;;;22.08;;
65879;SDS011;52661;51.364;6.054;2022-08-18T01:25:07;48.65;;;24.58;;
65879;SDS011;52661;51.364;6.054;2022-08-18T01:27:52;42.10;;;20.90;;
65879;SDS011;52661;51.364;6.054;2022-08-18T01:30:21;46.08;;;21.98;;
65879;SDS011;52661;51.364;6.054;2022-08-18T01:32:49;48.10;;;24.55;;
65879;SDS011;52661;51.364;6.054;2022-08-18T01:35:17;45.08;;;22.73;;
65879;SDS011;52661;51.364;6.054;2022-08-18T01:37:44;48.05;;;23.52;;
65879;SDS011;52661;51.364;6.054;2022-08-18T01:40:11;48.53;;;23.38;;
65879;SDS011;52661;51.364;6.054;2022-08-18T01:42:38;52.25;;;23.73;;
65879;SDS011;52661;51.364;6.054;2022-08-18T01:45:08;43.88;;;21.33;;
65879;SDS011;52661;51.364;6.054;2022-08-18T01:47:34;44.42;;;21.52;;
65879;SDS011;52661;51.364;6.054;2022-08-18T01:50:01;45.63;;;22.48;;
65879;SDS011;52661;51.364;6.054;2022-08-18T01:52:26;43.63;;;22.35;;
65879;SDS011;52661;51.364;6.054;2022-08-18T01:54:53;49.05;;;24.35;;
65879;SDS011;52661;51.364;6.054;2022-08-18T01:57:22;45.60;;;23.35;;
65879;SDS011;52661;51.364;6.054;2022-08-18T01:59:47;46.90;;;25.52;;
65879;SDS011;52661;51.364;6.054;2022-08-18T02:02:14;49.50;;;23.60;;
65879;SDS011;52661;51.364;6.054;2022-08-18T02:04:44;48.47;;;22.95;;
65879;SDS011;52661;51.364;6.054;2022-08-18T02:07:11;47.83;;;22.08;;
65879;SDS011;52661;51.364;6.054;2022-08-18T02:09:39;46.00;;;21.98;;
65879;SDS011;52661;51.364;6.054;2022-08-18T02:12:07;51.67;;;24.02;;
65879;SDS011;52661;51.364;6.054;2022-08-18T02:14:33;46.35;;;21.92;;
65879;SDS011;52661;51.364;6.054;2022-08-18T02:17:00;51.15;;;22.75;;
65879;SDS011;52661;51.364;6.054;2022-08-18T02:19:27;51.80;;;25.80;;
65879;SDS011;52661;51.364;6.054;2022-08-18T02:21:52;48.25;;;22.88;;
65879;SDS011;52661;51.364;6.054;2022-08-18T02:24:18;47.92;;;22.70;;
65879;SDS011;52661;51.364;6.054;2022-08-18T02:26:44;47.72;;;22.52;;
65879;SDS011;52661;51.364;6.054;2022-08-18T02:29:09;46.85;;;21.58;;
65879;SDS011;52661;51.364;6.054;2022-08-18T02:31:34;46.03;;;23.15;;
65879;SDS011;52661;51.364;6.054;2022-08-18T02:34:00;47.10;;;23.00;;
65879;SDS011;52661;51.364;6.054;2022-08-18T02:36:26;49.47;;;23.25;;
65879;SDS011;52661;51.364;6.054;2022-08-18T02:38:52;42.83;;;21.98;;
65879;SDS011;52661;51.364;6.054;2022-08-18T02:41:18;47.50;;;23.40;;
65879;SDS011;52661;51.364;6.054;2022-08-18T02:43:44;43.83;;;21.90;;
65879;SDS011;52661;51.364;6.054;2022-08-18T02:46:12;44.97;;;21.55;;
65879;SDS011;52661;51.364;6.054;2022-08-18T02:48:38;42.13;;;21.58;;
65879;SDS011;52661;51.364;6.054;2022-08-18T02:51:05;47.10;;;22.33;;
65879;SDS011;52661;51.364;6.054;2022-08-18T02:53:31;44.78;;;21.92;;
65879;SDS011;52661;51.364;6.054;2022-08-18T02:56:07;44.97;;;22.20;;
65879;SDS011;52661;51.364;6.054;2022-08-18T02:58:52;46.28;;;21.67;;
65879;SDS011;52661;51.364;6.054;2022-08-18T03:01:20;45.42;;;22.40;;
65879;SDS011;52661;51.364;6.054;2022-08-18T03:03:47;44.53;;;21.73;;
65879;SDS011;52661;51.364;6.054;2022-08-18T03:06:13;46.30;;;22.55;;
65879;SDS011;52661;51.364;6.054;2022-08-18T03:08:39;43.80;;;21.63;;
65879;SDS011;52661;51.364;6.054;2022-08-18T03:11:04;46.50;;;22.60;;
65879;SDS011;52661;51.364;6.054;2022-08-18T03:13:29;44.83;;;20.70;;
65879;SDS011;52661;51.364;6.054;2022-08-18T03:15:55;40.83;;;20.37;;
65879;SDS011;52661;51.364;6.054;2022-08-18T03:18:21;40.75;;;19.63;;
65879;SDS011;52661;51.364;6.054;2022-08-18T03:20:47;44.72;;;21.38;;
65879;SDS011;52661;51.364;6.054;2022-08-18T03:23:13;41.45;;;20.17;;
65879;SDS011;52661;51.364;6.054;2022-08-18T03:25:42;45.78;;;20.75;;
65879;SDS011;52661;51.364;6.054;2022-08-18T03:28:12;41.83;;;20.38;;
65879;SDS011;52661;51.364;6.054;2022-08-18T03:30:38;41.22;;;19.52;;
65879;SDS011;52661;51.364;6.054;2022-08-18T03:33:04;41.05;;;20.42;;
65879;SDS011;52661;51.364;6.054;2022-08-18T03:35:29;44.58;;;21.13;;
65879;SDS011;52661;51.364;6.054;2022-08-18T03:37:58;41.20;;;20.67;;
65879;SDS011;52661;51.364;6.054;2022-08-18T03:40:23;43.20;;;20.60;;
65879;SDS011;52661;51.364;6.054;2022-08-18T03:42:49;46.37;;;22.07;;
65879;SDS011;52661;51.364;6.054;2022-08-18T03:45:14;42.30;;;21.67;;
65879;SDS011;52661;51.364;6.054;2022-08-18T03:47:39;39.40;;;21.48;;
65879;SDS011;52661;51.364;6.054;2022-08-18T03:50:05;42.47;;;20.23;;
65879;SDS011;52661;51.364;6.054;2022-08-18T03:52:31;41.17;;;20.75;;
65879;SDS011;52661;51.364;6.054;2022-08-18T03:54:56;42.72;;;20.92;;
65879;SDS011;52661;51.364;6.054;2022-08-18T03:57:21;41.53;;;20.27;;
65879;SDS011;52661;51.364;6.054;2022-08-18T03:59:47;42.10;;;20.17;;
65879;SDS011;52661;51.364;6.054;2022-08-18T04:02:12;41.15;;;20.42;;
65879;SDS011;52661;51.364;6.054;2022-08-18T04:04:38;40.25;;;19.35;;
65879;SDS011;52661;51.364;6.054;2022-08-18T04:07:08;38.38;;;19.23;;
65879;SDS011;52661;51.364;6.054;2022-08-18T04:09:35;42.33;;;20.63;;
65879;SDS011;52661;51.364;6.054;2022-08-18T04:12:06;39.45;;;19.65;;
65879;SDS011;52661;51.364;6.054;2022-08-18T04:17:02;39.63;;;19.70;;
65879;SDS011;52661;51.364;6.054;2022-08-18T04:19:27;46.58;;;23.52;;
65879;SDS011;52661;51.364;6.054;2022-08-18T04:21:53;40.63;;;20.15;;
65879;SDS011;52661;51.364;6.054;2022-08-18T04:24:20;38.85;;;19.50;;
65879;SDS011;52661;51.364;6.054;2022-08-18T04:26:46;42.30;;;20.30;;
65879;SDS011;52661;51.364;6.054;2022-08-18T04:29:13;40.08;;;19.50;;
65879;SDS011;52661;51.364;6.054;2022-08-18T04:31:41;40.78;;;19.85;;
65879;SDS011;52661;51.364;6.054;2022-08-18T04:34:06;39.28;;;19.70;;
65879;SDS011;52661;51.364;6.054;2022-08-18T04:36:32;36.47;;;18.90;;
65879;SDS011;52661;51.364;6.054;2022-08-18T04:38:59;38.25;;;19.05;;
65879;SDS011;52661;51.364;6.054;2022-08-18T04:41:26;37.63;;;19.65;;
65879;SDS011;52661;51.364;6.054;2022-08-18T04:43:53;37.78;;;19.02;;
65879;SDS011;52661;51.364;6.054;2022-08-18T04:46:22;41.97;;;20.80;;
65879;SDS011;52661;51.364;6.054;2022-08-18T04:48:48;40.33;;;19.95;;
65879;SDS011;52661;51.364;6.054;2022-08-18T04:51:15;37.72;;;19.30;;
65879;SDS011;52661;51.364;6.054;2022-08-18T04:53:43;39.17;;;18.75;;
65879;SDS011;52661;51.364;6.054;2022-08-18T04:56:11;35.85;;;18.27;;
65879;SDS011;52661;51.364;6.054;2022-08-18T04:58:50;42.17;;;19.80;;
65879;SDS011;52661;51.364;6.054;2022-08-18T05:01:20;40.65;;;20.25;;
65879;SDS011;52661;51.364;6.054;2022-08-18T05:03:49;38.63;;;19.13;;
65879;SDS011;52661;51.364;6.054;2022-08-18T05:06:16;38.58;;;19.52;;
65879;SDS011;52661;51.364;6.054;2022-08-18T05:08:43;37.65;;;19.17;;
65879;SDS011;52661;51.364;6.054;2022-08-18T05:13:36;36.70;;;18.47;;
65879;SDS011;52661;51.364;6.054;2022-08-18T05:16:01;34.45;;;17.13;;
65879;SDS011;52661;51.364;6.054;2022-08-18T05:18:28;36.40;;;17.73;;
65879;SDS011;52661;51.364;6.054;2022-08-18T05:20:55;34.83;;;17.27;;
65879;SDS011;52661;51.364;6.054;2022-08-18T05:23:22;32.17;;;15.43;;
65879;SDS011;52661;51.364;6.054;2022-08-18T05:25:48;32.22;;;15.35;;
65879;SDS011;52661;51.364;6.054;2022-08-18T05:28:14;32.80;;;16.10;;
65879;SDS011;52661;51.364;6.054;2022-08-18T05:30:40;29.52;;;13.88;;
65879;SDS011;52661;51.364;6.054;2022-08-18T05:33:07;29.42;;;13.00;;
65879;SDS011;52661;51.364;6.054;2022-08-18T05:35:42;27.33;;;12.15;;
65879;SDS011;52661;51.364;6.054;2022-08-18T05:38:16;25.17;;;12.27;;
65879;SDS011;52661;51.364;6.054;2022-08-18T05:40:44;24.65;;;12.65;;
65879;SDS011;52661;51.364;6.054;2022-08-18T05:43:10;26.02;;;14.20;;
65879;SDS011;52661;51.364;6.054;2022-08-18T05:45:37;27.83;;;12.80;;
65879;SDS011;52661;51.364;6.054;2022-08-18T05:48:04;22.63;;;11.27;;
65879;SDS011;52661;51.364;6.054;2022-08-18T05:50:30;23.65;;;11.07;;
65879;SDS011;52661;51.364;6.054;2022-08-18T05:53:04;22.92;;;12.32;;
65879;SDS011;52661;51.364;6.054;2022-08-18T05:55:33;23.38;;;12.32;;
65879;SDS011;52661;51.364;6.054;2022-08-18T05:58:23;23.13;;;11.90;;
65879;SDS011;52661;51.364;6.054;2022-08-18T06:00:55;24.35;;;12.18;;
65879;SDS011;52661;51.364;6.054;2022-08-18T06:03:45;21.67;;;11.07;;
65879;SDS011;52661;51.364;6.054;2022-08-18T06:06:32;23.52;;;11.23;;
65879;SDS011;52661;51.364;6.054;2022-08-18T06:09:06;21.38;;;11.00;;
65879;SDS011;52661;51.364;6.054;2022-08-18T06:11:41;18.90;;;9.82;;
65879;SDS011;52661;51.364;6.054;2022-08-18T06:14:07;17.73;;;10.13;;
65879;SDS011;52661;51.364;6.054;2022-08-18T06:19:10;18.65;;;9.90;;
65879;SDS011;52661;51.364;6.054;2022-08-18T06:21:46;19.25;;;10.18;;
65879;SDS011;52661;51.364;6.054;2022-08-18T06:24:24;22.58;;;9.40;;
65879;SDS011;52661;51.364;6.054;2022-08-18T06:27:22;18.63;;;11.07;;
65879;SDS011;52661;51.364;6.054;2022-08-18T06:41:47;19.95;;;10.00;;
65879;SDS011;52661;51.364;6.054;2022-08-18T06:47:07;15.77;;;7.30;;
65879;SDS011;52661;51.364;6.054;2022-08-18T06:52:20;15.88;;;7.93;;
65879;SDS011;52661;51.364;6.054;2022-08-18T06:54:47;15.57;;;7.88;;
65879;SDS011;52661;51.364;6.054;2022-08-18T06:59:57;14.40;;;7.60;;
65879;SDS011;52661;51.364;6.054;2022-08-18T07:05:14;15.65;;;7.72;;
65879;SDS011;52661;51.364;6.054;2022-08-18T07:08:04;16.35;;;8.50;;
65879;SDS011;52661;51.364;6.054;2022-08-18T07:10:45;16.30;;;8.15;;
65879;SDS011;52661;51.364;6.054;2022-08-18T07:13:14;14.45;;;7.97;;
65879;SDS011;52661;51.364;6.054;2022-08-18T07:15:43;17.98;;;9.05;;
65879;SDS011;52661;51.364;6.054;2022-08-18T07:18:10;16.08;;;9.27;;
65879;SDS011;52661;51.364;6.054;2022-08-18T07:20:44;17.92;;;9.63;;
65879;SDS011;52661;51.364;6.054;2022-08-18T07:25:50;15.40;;;9.10;;
65879;SDS011;52661;51.364;6.054;2022-08-18T07:28:37;15.88;;;8.07;;
65879;SDS011;52661;51.364;6.054;2022-08-18T07:33:55;13.90;;;6.70;;
65879;SDS011;52661;51.364;6.054;2022-08-18T07:36:26;14.70;;;7.07;;
65879;SDS011;52661;51.364;6.054;2022-08-18T07:39:02;12.75;;;6.88;;
65879;SDS011;52661;51.364;6.054;2022-08-18T07:41:42;13.90;;;6.70;;
65879;SDS011;52661;51.364;6.054;2022-08-18T07:44:14;16.83;;;8.50;;
65879;SDS011;52661;51.364;6.054;2022-08-18T07:47:00;16.67;;;8.05;;
65879;SDS011;52661;51.364;6.054;2022-08-18T07:49:36;18.25;;;8.77;;
65879;SDS011;52661;51.364;6.054;2022-08-18T07:54:35;17.83;;;8.93;;
65879;SDS011;52661;51.364;6.054;2022-08-18T08:00:00;17.58;;;9.55;;
65879;SDS011;52661;51.364;6.054;2022-08-18T08:05:12;17.90;;;10.65;;
65879;SDS011;52661;51.364;6.054;2022-08-18T08:07:47;20.77;;;12.27;;
65879;SDS011;52661;51.364;6.054;2022-08-18T08:10:32;24.83;;;10.05;;
65879;SDS011;52661;51.364;6.054;2022-08-18T08:21:10;18.60;;;10.63;;
65879;SDS011;52661;51.364;6.054;2022-08-18T08:26:36;18.23;;;9.75;;
65879;SDS011;52661;51.364;6.054;2022-08-18T08:32:07;20.67;;;10.60;;
65879;SDS011;52661;51.364;6.054;2022-08-18T08:34:53;16.20;;;9.30;;
65879;SDS011;52661;51.364;6.054;2022-08-18T08:37:26;18.42;;;9.90;;
65879;SDS011;52661;51.364;6.054;2022-08-18T08:40:06;17.50;;;10.13;;
65879;SDS011;52661;51.364;6.054;2022-08-18T08:42:48;18.83;;;9.63;;
65879;SDS011;52661;51.364;6.054;2022-08-18T08:45:26;18.05;;;11.23;;
65879;SDS011;52661;51.364;6.054;2022-08-18T08:50:23;16.63;;;8.60;;
65879;SDS011;52661;51.364;6.054;2022-08-18T08:55:55;14.57;;;8.98;;
65879;SDS011;52661;51.364;6.054;2022-08-18T08:58:35;17.35;;;8.73;;
65879;SDS011;52661;51.364;6.054;2022-08-18T09:01:08;14.35;;;8.10;;
65879;SDS011;52661;51.364;6.054;2022-08-18T09:03:55;14.50;;;8.95;;
65879;SDS011;52661;51.364;6.054;2022-08-18T09:09:29;14.80;;;9.63;;
65879;SDS011;52661;51.364;6.054;2022-08-18T09:28:07;14.35;;;7.13;;
65879;SDS011;52661;51.364;6.054;2022-08-18T09:38:33;17.67;;;7.82;;
65879;SDS011;52661;51.364;6.054;2022-08-18T09:41:29;15.65;;;8.38;;
65879;SDS011;52661;51.364;6.054;2022-08-18T09:44:07;13.45;;;8.45;;
65879;SDS011;52661;51.364;6.054;2022-08-18T09:46:53;12.13;;;7.40;;
65879;SDS011;52661;51.364;6.054;2022-08-18T09:51:58;11.70;;;6.70;;
65879;SDS011;52661;51.364;6.054;2022-08-18T09:57:42;12.43;;;6.82;;
65879;SDS011;52661;51.364;6.054;2022-08-18T10:13:24;14.18;;;8.27;;
65879;SDS011;52661;51.364;6.054;2022-08-18T10:31:23;13.18;;;7.18;;
65879;SDS011;52661;51.364;6.054;2022-08-18T10:34:35;10.32;;;6.97;;
65879;SDS011;52661;51.364;6.054;2022-08-18T10:37:01;11.73;;;6.53;;
65879;SDS011;52661;51.364;6.054;2022-08-18T10:44:55;13.35;;;7.85;;
65879;SDS011;52661;51.364;6.054;2022-08-18T10:47:32;14.00;;;7.43;;
65879;SDS011;52661;51.364;6.054;2022-08-18T10:49:57;8.93;;;5.22;;
65879;SDS011;52661;51.364;6.054;2022-08-18T10:58:17;9.82;;;5.72;;
65879;SDS011;52661;51.364;6.054;2022-08-18T11:06:19;12.90;;;7.22;;
65879;SDS011;52661;51.364;6.054;2022-08-18T11:08:46;12.52;;;7.35;;
65879;SDS011;52661;51.364;6.054;2022-08-18T11:11:14;12.05;;;7.10;;
65879;SDS011;52661;51.364;6.054;2022-08-18T11:19:13;14.50;;;7.13;;
65879;SDS011;52661;51.364;6.054;2022-08-18T11:24:15;9.75;;;5.22;;
65879;SDS011;52661;51.364;6.054;2022-08-18T11:26:47;10.52;;;5.53;;
65879;SDS011;52661;51.364;6.054;2022-08-18T11:34:16;10.13;;;6.60;;
65879;SDS011;52661;51.364;6.054;2022-08-18T11:36:57;11.57;;;6.85;;
65879;SDS011;52661;51.364;6.054;2022-08-18T11:39:25;11.10;;;6.85;;
65879;SDS011;52661;51.364;6.054;2022-08-18T11:41:52;12.63;;;6.55;;
65879;SDS011;52661;51.364;6.054;2022-08-18T11:44:19;11.43;;;7.28;;
65879;SDS011;52661;51.364;6.054;2022-08-18T11:46:48;11.43;;;5.85;;
65879;SDS011;52661;51.364;6.054;2022-08-18T11:49:29;9.13;;;6.55;;
65879;SDS011;52661;51.364;6.054;2022-08-18T11:52:02;12.30;;;6.03;;
65879;SDS011;52661;51.364;6.054;2022-08-18T11:54:51;10.18;;;5.88;;
65879;SDS011;52661;51.364;6.054;2022-08-18T12:00:34;9.13;;;6.30;;
65879;SDS011;52661;51.364;6.054;2022-08-18T12:03:04;10.00;;;6.20;;
65879;SDS011;52661;51.364;6.054;2022-08-18T12:05:55;9.55;;;6.38;;
65879;SDS011;52661;51.364;6.054;2022-08-18T12:08:30;9.90;;;5.82;;
65879;SDS011;52661;51.364;6.054;2022-08-18T12:11:15;9.05;;;5.80;;
65879;SDS011;52661;51.364;6.054;2022-08-18T12:13:44;9.32;;;5.65;;
65879;SDS011;52661;51.364;6.054;2022-08-18T12:16:13;9.88;;;6.13;;
65879;SDS011;52661;51.364;6.054;2022-08-18T12:18:56;11.40;;;6.72;;
65879;SDS011;52661;51.364;6.054;2022-08-18T12:21:22;11.32;;;7.28;;
65879;SDS011;52661;51.364;6.054;2022-08-18T12:23:47;10.13;;;5.67;;
65879;SDS011;52661;51.364;6.054;2022-08-18T12:26:13;11.45;;;5.80;;
65879;SDS011;52661;51.364;6.054;2022-08-18T12:28:39;10.85;;;6.05;;
65879;SDS011;52661;51.364;6.054;2022-08-18T12:31:04;8.85;;;5.15;;
65879;SDS011;52661;51.364;6.054;2022-08-18T12:33:31;9.52;;;5.32;;
65879;SDS011;52661;51.364;6.054;2022-08-18T12:35:56;12.40;;;5.93;;
65879;SDS011;52661;51.364;6.054;2022-08-18T12:38:22;12.10;;;5.97;;
65879;SDS011;52661;51.364;6.054;2022-08-18T12:40:47;10.43;;;5.75;;
65879;SDS011;52661;51.364;6.054;2022-08-18T12:43:13;8.55;;;5.45;;
65879;SDS011;52661;51.364;6.054;2022-08-18T12:45:39;11.23;;;5.88;;
65879;SDS011;52661;51.364;6.054;2022-08-18T12:48:05;11.23;;;5.75;;
65879;SDS011;52661;51.364;6.054;2022-08-18T12:50:31;10.07;;;5.35;;
65879;SDS011;52661;51.364;6.054;2022-08-18T12:52:57;9.13;;;5.97;;
65879;SDS011;52661;51.364;6.054;2022-08-18T12:55:22;9.32;;;5.75;;
65879;SDS011;52661;51.364;6.054;2022-08-18T12:57:48;12.17;;;6.53;;
65879;SDS011;52661;51.364;6.054;2022-08-18T13:00:13;9.55;;;5.78;;
65879;SDS011;52661;51.364;6.054;2022-08-18T13:02:39;7.28;;;4.40;;
65879;SDS011;52661;51.364;6.054;2022-08-18T13:05:05;10.07;;;5.53;;
65879;SDS011;52661;51.364;6.054;2022-08-18T13:07:30;12.90;;;6.13;;
65879;SDS011;52661;51.364;6.054;2022-08-18T13:09:56;8.07;;;4.75;;
65879;SDS011;52661;51.364;6.054;2022-08-18T13:12:21;7.40;;;4.37;;
65879;SDS011;52661;51.364;6.054;2022-08-18T13:14:49;9.98;;;4.85;;
65879;SDS011;52661;51.364;6.054;2022-08-18T13:17:18;10.75;;;5.72;;
65879;SDS011;52661;51.364;6.054;2022-08-18T13:19:45;8.70;;;5.55;;
65879;SDS011;52661;51.364;6.054;2022-08-18T13:22:10;9.45;;;4.93;;
65879;SDS011;52661;51.364;6.054;2022-08-18T13:24:36;10.60;;;5.40;;
65879;SDS011;52661;51.364;6.054;2022-08-18T13:27:02;7.10;;;5.45;;
65879;SDS011;52661;51.364;6.054;2022-08-18T13:29:28;8.93;;;5.05;;
65879;SDS011;52661;51.364;6.054;2022-08-18T13:31:53;7.77;;;4.93;;
65879;SDS011;52661;51.364;6.054;2022-08-18T13:34:22;8.70;;;5.45;;
65879;SDS011;52661;51.364;6.054;2022-08-18T13:36:48;8.75;;;5.22;;
65879;SDS011;52661;51.364;6.054;2022-08-18T13:39:14;9.75;;;5.65;;
65879;SDS011;52661;51.364;6.054;2022-08-18T13:41:43;8.32;;;5.95;;
65879;SDS011;52661;51.364;6.054;2022-08-18T13:44:10;8.18;;;4.05;;
65879;SDS011;52661;51.364;6.054;2022-08-18T13:46:37;11.57;;;5.38;;
65879;SDS011;52661;51.364;6.054;2022-08-18T13:49:09;16.95;;;5.57;;
65879;SDS011;52661;51.364;6.054;2022-08-18T13:51:39;9.27;;;4.75;;
65879;SDS011;52661;51.364;6.054;2022-08-18T13:56:31;10.13;;;4.97;;
65879;SDS011;52661;51.364;6.054;2022-08-18T13:58:57;8.73;;;6.22;;
65879;SDS011;52661;51.364;6.054;2022-08-18T14:01:22;8.90;;;4.65;;
65879;SDS011;52661;51.364;6.054;2022-08-18T14:03:48;8.53;;;4.93;;
65879;SDS011;52661;51.364;6.054;2022-08-18T14:06:14;8.60;;;4.50;;
65879;SDS011;52661;51.364;6.054;2022-08-18T14:08:40;6.90;;;4.97;;
65879;SDS011;52661;51.364;6.054;2022-08-18T14:11:05;7.88;;;4.95;;
65879;SDS011;52661;51.364;6.054;2022-08-18T14:13:30;7.85;;;5.00;;
65879;SDS011;52661;51.364;6.054;2022-08-18T14:15:57;9.25;;;4.65;;
65879;SDS011;52661;51.364;6.054;2022-08-18T14:18:23;7.55;;;4.60;;
65879;SDS011;52661;51.364;6.054;2022-08-18T14:20:50;9.75;;;5.05;;
65879;SDS011;52661;51.364;6.054;2022-08-18T14:23:34;6.55;;;4.20;;
65879;SDS011;52661;51.364;6.054;2022-08-18T14:26:29;7.00;;;4.18;;
65879;SDS011;52661;51.364;6.054;2022-08-18T14:29:12;6.95;;;5.15;;
65879;SDS011;52661;51.364;6.054;2022-08-18T14:31:38;8.50;;;5.25;;
65879;SDS011;52661;51.364;6.054;2022-08-18T14:34:04;9.93;;;5.18;;
65879;SDS011;52661;51.364;6.054;2022-08-18T14:36:29;8.00;;;4.55;;
65879;SDS011;52661;51.364;6.054;2022-08-18T14:38:54;8.18;;;4.63;;
65879;SDS011;52661;51.364;6.054;2022-08-18T14:41:21;10.60;;;4.72;;
65879;SDS011;52661;51.364;6.054;2022-08-18T14:43:46;8.20;;;4.88;;
65879;SDS011;52661;51.364;6.054;2022-08-18T14:46:11;7.65;;;5.00;;
65879;SDS011;52661;51.364;6.054;2022-08-18T14:48:38;19.30;;;5.55;;
65879;SDS011;52661;51.364;6.054;2022-08-18T14:51:04;9.02;;;4.82;;
65879;SDS011;52661;51.364;6.054;2022-08-18T14:53:31;6.28;;;4.30;;
65879;SDS011;52661;51.364;6.054;2022-08-18T14:56:00;8.05;;;4.47;;
65879;SDS011;52661;51.364;6.054;2022-08-18T14:58:28;7.97;;;4.30;;
65879;SDS011;52661;51.364;6.054;2022-08-18T15:00:55;7.00;;;4.00;;
65879;SDS011;52661;51.364;6.054;2022-08-18T15:03:31;7.80;;;4.40;;
65879;SDS011;52661;51.364;6.054;2022-08-18T15:05:58;7.50;;;4.55;;
65879;SDS011;52661;51.364;6.054;2022-08-18T15:08:25;7.90;;;4.55;;
65879;SDS011;52661;51.364;6.054;2022-08-18T15:10:51;7.47;;;4.40;;
65879;SDS011;52661;51.364;6.054;2022-08-18T15:13:16;8.90;;;5.60;;
65879;SDS011;52661;51.364;6.054;2022-08-18T15:15:41;6.53;;;4.55;;
65879;SDS011;52661;51.364;6.054;2022-08-18T15:18:10;5.97;;;4.72;;
65879;SDS011;52661;51.364;6.054;2022-08-18T15:20:35;6.07;;;4.07;;
65879;SDS011;52661;51.364;6.054;2022-08-18T15:23:21;5.53;;;3.10;;
65879;SDS011;52661;51.364;6.054;2022-08-18T15:26:05;5.35;;;3.50;;
65879;SDS011;52661;51.364;6.054;2022-08-18T15:28:31;6.65;;;3.47;;
65879;SDS011;52661;51.364;6.054;2022-08-18T15:30:56;6.05;;;3.33;;
65879;SDS011;52661;51.364;6.054;2022-08-18T15:33:22;7.20;;;3.47;;
65879;SDS011;52661;51.364;6.054;2022-08-18T15:35:49;6.55;;;4.30;;
65879;SDS011;52661;51.364;6.054;2022-08-18T15:38:18;7.97;;;4.10;;
65879;SDS011;52661;51.364;6.054;2022-08-18T15:40:51;8.05;;;4.22;;
65879;SDS011;52661;51.364;6.054;2022-08-18T15:43:19;5.82;;;3.78;;
65879;SDS011;52661;51.364;6.054;2022-08-18T15:45:45;6.95;;;3.88;;
65879;SDS011;52661;51.364;6.054;2022-08-18T15:48:14;7.25;;;3.85;;
65879;SDS011;52661;51.364;6.054;2022-08-18T15:50:41;8.57;;;4.35;;
65879;SDS011;52661;51.364;6.054;2022-08-18T15:53:10;7.15;;;4.10;;
65879;SDS011;52661;51.364;6.054;2022-08-18T15:55:36;6.47;;;3.92;;
65879;SDS011;52661;51.364;6.054;2022-08-18T16:00:29;6.78;;;4.00;;
65879;SDS011;52661;51.364;6.054;2022-08-18T16:02:56;9.32;;;5.05;;
65879;SDS011;52661;51.364;6.054;2022-08-18T16:05:26;8.38;;;4.65;;
65879;SDS011;52661;51.364;6.054;2022-08-18T16:07:57;6.97;;;4.43;;
65879;SDS011;52661;51.364;6.054;2022-08-18T16:10:26;7.30;;;5.80;;
65879;SDS011;52661;51.364;6.054;2022-08-18T16:12:56;6.57;;;4.47;;
65879;SDS011;52661;51.364;6.054;2022-08-18T16:15:23;6.07;;;4.38;;
65879;SDS011;52661;51.364;6.054;2022-08-18T16:17:50;7.50;;;4.30;;
65879;SDS011;52661;51.364;6.054;2022-08-18T16:20:17;7.25;;;4.88;;
65879;SDS011;52661;51.364;6.054;2022-08-18T16:22:44;8.70;;;4.68;;
65879;SDS011;52661;51.364;6.054;2022-08-18T16:25:10;7.28;;;4.15;;
65879;SDS011;52661;51.364;6.054;2022-08-18T16:27:35;6.57;;;4.88;;
65879;SDS011;52661;51.364;6.054;2022-08-18T16:30:05;7.10;;;4.30;;
65879;SDS011;52661;51.364;6.054;2022-08-18T16:32:32;9.82;;;4.82;;
65879;SDS011;52661;51.364;6.054;2022-08-18T16:34:57;6.63;;;4.75;;
65879;SDS011;52661;51.364;6.054;2022-08-18T16:37:23;8.10;;;4.95;;
65879;SDS011;52661;51.364;6.054;2022-08-18T16:39:49;7.95;;;4.55;;
65879;SDS011;52661;51.364;6.054;2022-08-18T16:42:14;6.07;;;3.90;;
65879;SDS011;52661;51.364;6.054;2022-08-18T16:44:41;6.93;;;4.28;;
65879;SDS011;52661;51.364;6.054;2022-08-18T16:47:06;8.63;;;4.30;;
65879;SDS011;52661;51.364;6.054;2022-08-18T16:49:32;7.55;;;4.57;;
65879;SDS011;52661;51.364;6.054;2022-08-18T16:51:58;8.43;;;5.15;;
65879;SDS011;52661;51.364;6.054;2022-08-18T16:54:26;6.55;;;4.70;;
65879;SDS011;52661;51.364;6.054;2022-08-18T16:56:52;6.47;;;4.43;;
65879;SDS011;52661;51.364;6.054;2022-08-18T16:59:17;8.15;;;6.45;;
65879;SDS011;52661;51.364;6.054;2022-08-18T17:02:01;7.53;;;5.28;;
65879;SDS011;52661;51.364;6.054;2022-08-18T17:04:45;8.57;;;4.25;;
65879;SDS011;52661;51.364;6.054;2022-08-18T17:07:11;7.87;;;4.50;;
65879;SDS011;52661;51.364;6.054;2022-08-18T17:09:36;7.65;;;5.20;;
65879;SDS011;52661;51.364;6.054;2022-08-18T17:12:01;8.67;;;4.77;;
65879;SDS011;52661;51.364;6.054;2022-08-18T17:14:28;8.38;;;5.18;;
65879;SDS011;52661;51.364;6.054;2022-08-18T17:16:55;8.75;;;4.72;;
65879;SDS011;52661;51.364;6.054;2022-08-18T17:24:14;8.05;;;5.18;;
65879;SDS011;52661;51.364;6.054;2022-08-18T17:29:32;9.38;;;4.95;;
65879;SDS011;52661;51.364;6.054;2022-08-18T17:32:07;6.70;;;4.28;;
65879;SDS011;52661;51.364;6.054;2022-08-18T17:34:40;8.00;;;4.75;;
65879;SDS011;52661;51.364;6.054;2022-08-18T17:37:09;9.00;;;4.78;;
65879;SDS011;52661;51.364;6.054;2022-08-18T17:39:42;6.25;;;4.38;;
65879;SDS011;52661;51.364;6.054;2022-08-18T17:42:13;7.15;;;5.05;;
65879;SDS011;52661;51.364;6.054;2022-08-18T17:44:50;7.03;;;5.10;;